Time;durP1;ratioP1;P1;durP2;ratioP2;P2;SDS_P1;SDS_P2;PMS_P1;PMS_P2;Temp;Humidity;BMP_temperature;BMP_pressure;BME280_temperature;BME280_humidity;BME280_pressure;Samples;Min_cycle;Max_cycle;Signal;HPM_P1;HPM_P2
2021/01/31 00:01:35;;;;;;;9.45;7.87;;;;;;;0.78;92.87;98848.09;1735833;82;20991;-33
2021/01/31 00:04:04;;;;;;;8.78;7.17;;;;;;;0.73;92.88;98840.47;1715228;82;21214;-33
2021/01/31 00:06:31;;;;;;;10.65;7.95;;;;;;;0.67;92.89;98861.70;1735804;82;21020;-32
2021/01/31 00:09:00;;;;;;;13.25;8.13;;;;;;;0.64;93.04;98857.90;1735872;82;20916;-33
2021/01/31 00:11:28;;;;;;;11.05;8.15;;;;;;;0.63;93.09;98857.48;1735792;82;21075;-33
2021/01/31 00:13:56;;;;;;;9.03;7.42;;;;;;;0.61;93.12;98854.50;1735879;82;20920;-33
2021/01/31 00:16:24;;;;;;;11.00;8.80;;;;;;;0.60;93.19;98852.40;1735882;82;22174;-33
2021/01/31 00:18:52;;;;;;;51.40;12.40;;;;;;;0.59;93.25;98854.94;1735835;82;21363;-33
2021/01/31 00:21:20;;;;;;;51.70;10.98;;;;;;;0.58;93.25;98865.56;1735889;82;21047;-32
2021/01/31 00:23:49;;;;;;;23.00;10.43;;;;;;;0.53;93.29;98859.65;1735786;82;21016;-32
2021/01/31 00:26:18;;;;;;;20.57;9.08;;;;;;;0.52;93.30;98848.59;1735849;81;21079;-32
2021/01/31 00:28:47;;;;;;;12.18;8.58;;;;;;;0.49;93.33;98852.44;1735914;82;21370;-34
2021/01/31 00:31:14;;;;;;;11.03;8.50;;;;;;;0.47;93.34;98851.59;1735795;81;22252;-32
2021/01/31 00:33:42;;;;;;;9.85;7.83;;;;;;;0.44;93.43;98852.88;1735804;82;20956;-33
2021/01/31 00:36:10;;;;;;;14.50;9.65;;;;;;;0.41;93.54;98846.08;1735821;82;21031;-33
2021/01/31 00:38:38;;;;;;;16.23;10.25;;;;;;;0.38;93.63;98843.55;1735961;82;20900;-34
2021/01/31 00:41:06;;;;;;;16.02;8.98;;;;;;;0.37;93.68;98835.91;1735952;82;21400;-32
2021/01/31 00:43:34;;;;;;;15.00;9.65;;;;;;;0.35;93.71;98827.42;1735758;82;20979;-32
2021/01/31 00:46:02;;;;;;;13.45;9.03;;;;;;;0.34;93.69;98825.73;1735822;82;20996;-33
2021/01/31 00:48:30;;;;;;;11.88;8.33;;;;;;;0.31;93.61;98825.74;1735901;82;21513;-33
2021/01/31 00:50:58;;;;;;;9.38;7.42;;;;;;;0.28;93.60;98828.72;1735854;82;20912;-35
2021/01/31 00:53:26;;;;;;;10.18;7.65;;;;;;;0.23;93.60;98815.58;1736078;82;21500;-34
2021/01/31 00:55:57;;;;;;;11.50;8.95;;;;;;;0.16;93.59;98812.22;1735420;82;20939;-34
2021/01/31 00:58:27;;;;;;;10.85;8.23;;;;;;;0.11;93.53;98823.67;1734971;82;20924;-34
2021/01/31 01:00:54;;;;;;;10.25;7.20;;;;;;;0.07;93.59;98826.22;1735965;81;21506;-33
2021/01/31 01:03:22;;;;;;;8.63;6.87;;;;;;;0.04;93.67;98819.45;1715373;82;20968;-35
2021/01/31 01:06:03;;;;;;;12.98;9.60;;;;;;;0.03;93.74;98821.98;1735940;82;21279;-34
2021/01/31 01:08:31;;;;;;;14.65;9.30;;;;;;;0.01;93.82;98814.38;1735961;82;20996;-34
2021/01/31 01:11:00;;;;;;;11.80;9.03;;;;;;;0.02;93.86;98818.61;1735999;82;20893;-32
2021/01/31 01:13:28;;;;;;;12.65;9.05;;;;;;;0.04;93.84;98822.00;1735987;82;20932;-31
2021/01/31 01:15:56;;;;;;;8.90;6.85;;;;;;;0.04;93.83;98823.27;1735919;82;20920;-32
2021/01/31 01:18:24;;;;;;;11.05;8.23;;;;;;;0.02;93.80;98812.25;1736011;81;21205;-31
2021/01/31 01:20:52;;;;;;;14.43;8.83;;;;;;;-0.03;93.79;98812.66;1735908;82;20956;-32
2021/01/31 01:23:20;;;;;;;11.78;8.60;;;;;;;-0.07;93.86;98810.98;1735984;82;20998;-31
2021/01/31 01:25:49;;;;;;;14.33;9.63;;;;;;;-0.10;93.91;98808.03;1735933;82;20889;-32
2021/01/31 01:28:17;;;;;;;15.78;10.38;;;;;;;-0.11;93.92;98807.61;1735996;82;20917;-32
2021/01/31 01:30:45;;;;;;;15.98;10.85;;;;;;;-0.11;93.97;98795.30;1735953;82;21338;-33
2021/01/31 01:33:13;;;;;;;20.82;11.75;;;;;;;-0.11;94.02;98793.62;1735844;81;21024;-33
2021/01/31 01:35:41;;;;;;;15.45;10.05;;;;;;;-0.11;94.07;98793.62;1735984;82;21023;-34
2021/01/31 01:38:09;;;;;;;12.23;8.95;;;;;;;-0.11;94.07;98800.38;1735934;82;20942;-33
2021/01/31 01:40:39;;;;;;;12.95;9.23;;;;;;;-0.11;94.14;98808.88;1735892;82;20928;-32
2021/01/31 01:43:10;;;;;;;14.40;9.30;;;;;;;-0.10;94.11;98805.48;1735937;81;21374;-33
2021/01/31 01:45:38;;;;;;;12.75;9.18;;;;;;;-0.10;94.15;98801.67;1735025;82;20963;-33
2021/01/31 01:48:16;;;;;;;25.35;10.98;;;;;;;-0.09;94.15;98808.86;1735901;82;20885;-33
2021/01/31 01:50:52;;;;;;;18.23;9.95;;;;;;;-0.09;94.22;98808.45;1735995;82;21436;-32
2021/01/31 01:53:21;;;;;;;11.60;8.50;;;;;;;-0.09;94.22;98807.59;1736004;82;20944;-33
2021/01/31 01:56:18;;;;;;;12.03;8.78;;;;;;;-0.09;94.16;98812.27;1735930;82;21272;-33
2021/01/31 01:58:46;;;;;;;11.73;8.78;;;;;;;-0.11;94.12;98814.38;1736073;82;26730;-34
2021/01/31 02:01:17;;;;;;;13.68;8.48;;;;;;;-0.15;94.14;98809.70;1735852;82;21537;-34
2021/01/31 02:03:45;;;;;;;11.15;8.88;;;;;;;-0.19;94.10;98813.97;1736036;82;20999;-34
2021/01/31 02:06:19;;;;;;;10.72;8.15;;;;;;;-0.20;94.11;98808.88;1735994;82;20940;-34
2021/01/31 02:08:49;;;;;;;22.23;7.77;;;;;;;-0.20;94.10;98799.56;1736150;82;21392;-32
2021/01/31 02:11:18;;;;;;;31.02;9.48;;;;;;;-0.20;94.07;98800.83;1735899;82;21238;-33
2021/01/31 02:13:51;;;;;;;17.52;8.23;;;;;;;-0.18;94.14;98804.22;1735928;82;20948;-33
2021/01/31 02:16:51;;;;;;;11.73;8.13;;;;;;;-0.19;94.14;98805.06;1735929;82;20932;-33
2021/01/31 02:20:02;;;;;;;11.85;8.63;;;;;;;-0.21;94.04;98800.41;1735902;82;21046;-32
2021/01/31 02:23:03;;;;;;;8.43;6.83;;;;;;;-0.22;94.06;98802.53;1727637;82;22819;-33
2021/01/31 02:25:49;;;;;;;9.40;7.78;;;;;;;-0.28;94.01;98795.32;1735903;82;21150;-33
2021/01/31 02:29:06;;;;;;;10.75;8.88;;;;;;;-0.34;94.07;98794.48;1736204;82;20995;-32
2021/01/31 02:32:04;;;;;;;10.65;7.15;;;;;;;-0.35;94.09;98801.69;1735858;82;21015;-32
2021/01/31 02:35:04;;;;;;;8.55;6.95;;;;;;;-0.38;94.15;98804.65;1734444;82;21052;-34
2021/01/31 02:37:43;;;;;;;11.55;7.83;;;;;;;-0.38;94.22;98801.70;1734275;82;21291;-34
2021/01/31 02:40:20;;;;;;;39.63;9.88;;;;;;;-0.37;94.28;98820.33;1734351;82;21012;-34
2021/01/31 02:43:13;;;;;;;17.52;7.72;;;;;;;-0.27;94.12;98889.84;1734527;82;20937;-33
2021/01/31 02:45:48;;;;;;;14.63;8.78;;;;;;;-0.25;93.87;98881.38;1734298;82;21024;-33
2021/01/31 02:48:22;;;;;;;14.05;9.23;;;;;;;-0.23;93.76;98889.00;1734357;82;21468;-34
2021/01/31 02:50:59;;;;;;;11.12;8.55;;;;;;;-0.27;93.76;98893.22;1734329;82;22295;-33
2021/01/31 02:53:34;;;;;;;8.50;6.62;;;;;;;-0.25;93.66;98895.78;1734298;82;20969;-34
2021/01/31 02:56:19;;;;;;;8.43;6.37;;;;;;;-0.27;93.64;98902.56;1734397;82;20996;-33
2021/01/31 02:58:59;;;;;;;8.80;6.45;;;;;;;-0.28;93.60;98890.70;1734451;82;20949;-32
2021/01/31 03:01:35;;;;;;;6.65;6.00;;;;;;;-0.28;93.52;98905.95;1733819;82;20901;-33
2021/01/31 03:04:11;;;;;;;8.58;6.65;;;;;;;-0.27;93.54;98912.73;1734291;82;22646;-32
2021/01/31 03:06:55;;;;;;;7.80;6.95;;;;;;;-0.26;93.50;98911.45;1734526;81;21433;-32
2021/01/31 03:09:35;;;;;;;8.18;7.17;;;;;;;-0.25;93.51;98914.86;1734423;82;20980;-33
2021/01/31 03:12:12;;;;;;;7.17;5.83;;;;;;;-0.20;93.44;98927.14;1734238;82;21507;-33
2021/01/31 03:14:47;;;;;;;9.28;6.42;;;;;;;-0.19;93.31;98922.08;1734327;82;21036;-33
2021/01/31 03:17:34;;;;;;;8.35;6.70;;;;;;;-0.13;93.10;98922.48;1734395;82;21388;-33
2021/01/31 03:20:24;;;;;;;9.63;6.55;;;;;;;-0.11;92.93;98927.17;1733969;82;21024;-32
2021/01/31 03:23:19;;;;;;;10.85;7.80;;;;;;;-0.09;92.85;98922.94;1734358;82;21508;-33
2021/01/31 03:25:58;;;;;;;10.75;8.20;;;;;;;-0.07;92.81;98911.47;1734305;82;20961;-33
2021/01/31 03:28:26;;;;;;;11.83;8.18;;;;;;;-0.07;92.69;98907.65;1734308;82;21321;-34
2021/01/31 03:30:55;;;;;;;11.00;8.25;;;;;;;-0.08;92.59;98901.73;1715577;82;22286;-33
2021/01/31 03:33:28;;;;;;;13.30;9.15;;;;;;;-0.06;92.59;98906.80;1735048;82;21538;-33
2021/01/31 03:35:56;;;;;;;17.75;9.95;;;;;;;-0.08;92.58;98910.64;1735819;82;20937;-33
2021/01/31 03:38:34;;;;;;;19.82;9.88;;;;;;;-0.07;92.49;98916.15;1735914;82;21518;-33
2021/01/31 03:41:05;;;;;;;16.82;9.80;;;;;;;-0.06;92.47;98928.43;1734668;82;21023;-33
2021/01/31 03:43:33;;;;;;;14.35;9.90;;;;;;;-0.09;92.35;98908.94;1735910;81;21055;-33
2021/01/31 03:46:25;;;;;;;23.27;11.18;;;;;;;-0.12;92.23;98921.66;1735787;82;21019;-33
2021/01/31 03:49:06;;;;;;;12.35;9.83;;;;;;;-0.15;92.11;98915.27;1720209;82;21000;-33
2021/01/31 03:51:34;;;;;;;15.25;10.60;;;;;;;-0.23;91.94;98916.56;1735797;82;21015;-33
2021/01/31 03:54:05;;;;;;;19.87;12.65;;;;;;;-0.28;91.90;98919.94;1715168;82;20964;-33
2021/01/31 03:56:40;;;;;;;13.53;9.98;;;;;;;-0.34;91.87;98923.31;1735702;81;21491;-34
2021/01/31 03:59:09;;;;;;;16.97;10.93;;;;;;;-0.41;91.90;98922.45;1735933;82;20952;-33
2021/01/31 04:01:39;;;;;;;14.33;10.60;;;;;;;-0.45;91.88;98931.79;1715492;82;20877;-32
2021/01/31 04:04:22;;;;;;;15.00;10.43;;;;;;;-0.45;91.88;98933.06;1735800;82;20908;-32
2021/01/31 04:06:51;;;;;;;16.40;10.50;;;;;;;-0.50;91.83;98923.31;1735408;82;20972;-33
2021/01/31 04:09:19;;;;;;;15.28;11.03;;;;;;;-0.57;91.79;98935.56;1736017;82;21218;-33
2021/01/31 04:11:47;;;;;;;15.80;11.40;;;;;;;-0.61;91.88;98954.20;1715176;82;21111;-32
2021/01/31 04:14:26;;;;;;;15.72;11.15;;;;;;;-0.61;91.90;98971.98;1735925;82;20972;-32
2021/01/31 04:16:54;;;;;;;17.98;11.65;;;;;;;-0.59;92.02;98982.60;1735795;82;20980;-32
2021/01/31 04:19:22;;;;;;;16.15;10.58;;;;;;;-0.54;92.08;98970.32;1735876;82;21012;-32
2021/01/31 04:21:50;;;;;;;45.80;14.53;;;;;;;-0.49;92.05;98973.31;1735906;81;22125;-33
2021/01/31 04:24:18;;;;;;;17.10;11.45;;;;;;;-0.45;92.05;98969.06;1735825;82;21059;-33
2021/01/31 04:26:46;;;;;;;14.68;11.12;;;;;;;-0.41;91.96;98966.95;1735917;81;20913;-33
2021/01/31 04:29:16;;;;;;;15.20;10.38;;;;;;;-0.40;91.84;98986.45;1735798;82;20999;-33
2021/01/31 04:31:44;;;;;;;22.50;11.40;;;;;;;-0.40;91.86;98998.33;1735848;82;21499;-33
2021/01/31 04:34:12;;;;;;;23.75;13.32;;;;;;;-0.39;91.92;99003.41;1746691;81;21941;-34
2021/01/31 04:36:40;;;;;;;42.38;12.13;;;;;;;-0.37;91.91;99005.55;1749848;82;21584;-34
2021/01/31 04:39:09;;;;;;;30.32;12.00;;;;;;;-0.36;91.86;98991.99;1749836;82;20982;-35
2021/01/31 04:41:39;;;;;;;29.82;11.68;;;;;;;-0.32;91.88;98983.52;1749761;82;20915;-33
2021/01/31 04:44:11;;;;;;;86.65;14.95;;;;;;;-0.27;91.78;98979.70;1749835;82;21010;-32
2021/01/31 04:49:04;;;;;;;19.05;11.38;;;;;;;-0.19;91.70;98985.67;1777070;79;22187;-33
2021/01/31 04:52:05;;;;;;;42.90;14.40;;;;;;;-0.19;91.65;99009.83;1749877;82;20975;-33
2021/01/31 04:55:05;;;;;;;47.83;13.25;;;;;;;-0.15;91.62;99020.84;1749772;80;21377;-32
2021/01/31 04:57:42;;;;;;;57.60;13.60;;;;;;;-0.13;91.49;99004.33;1749711;82;20951;-32
2021/01/31 05:00:23;;;;;;;55.30;14.75;;;;;;;-0.14;91.43;99022.55;1749661;82;20935;-33
2021/01/31 05:02:55;;;;;;;47.17;13.65;;;;;;;-0.12;91.37;99038.69;1749644;82;20987;-34
2021/01/31 05:05:30;;;;;;;23.92;13.35;;;;;;;-0.09;91.14;99061.59;1749823;82;20928;-32
2021/01/31 05:08:03;;;;;;;21.57;13.45;;;;;;;-0.05;90.95;99067.11;1749904;82;22127;-33
2021/01/31 05:10:30;;;;;;;22.73;13.18;;;;;;;-0.05;90.84;99081.10;1749783;81;20987;-34
2021/01/31 05:13:18;;;;;;;24.75;13.88;;;;;;;-0.02;90.74;99065.84;1749753;81;21018;-33
2021/01/31 05:16:10;;;;;;;27.55;15.32;;;;;;;-0.04;90.68;99097.20;1749669;82;21038;-33
2021/01/31 05:18:47;;;;;;;36.98;14.40;;;;;;;0.04;90.40;99081.96;1749766;82;21155;-33
2021/01/31 05:21:20;;;;;;;26.85;13.35;;;;;;;0.05;90.33;99093.43;1749681;82;21367;-32
2021/01/31 05:23:59;;;;;;;22.50;13.85;;;;;;;0.04;90.30;99052.70;1749634;81;20991;-33
2021/01/31 05:26:32;;;;;;;34.30;14.05;;;;;;;0.04;90.31;99075.60;1749740;82;21451;-33
2021/01/31 05:29:02;;;;;;;29.95;13.38;;;;;;;0.11;89.73;99106.57;1749479;82;21015;-33
2021/01/31 05:31:34;;;;;;;21.93;12.43;;;;;;;0.16;89.29;99130.37;1749838;81;21530;-34
2021/01/31 05:34:02;;;;;;;17.05;10.30;;;;;;;0.16;88.12;99127.81;1749691;82;22498;-34
2021/01/31 05:36:32;;;;;;;15.00;9.88;;;;;;;-0.01;85.43;99136.65;1749654;82;21140;-34
2021/01/31 05:39:00;;;;;;;14.90;10.00;;;;;;;-0.11;83.31;99148.92;1749600;82;21081;-33
2021/01/31 05:41:47;;;;;;;16.50;11.12;;;;;;;-0.23;82.62;99150.98;1749752;82;21074;-34
2021/01/31 05:44:24;;;;;;;18.52;11.10;;;;;;;-0.30;82.85;99161.55;1749828;82;21478;-33
2021/01/31 05:47:02;;;;;;;12.45;7.78;;;;;;;-0.36;82.13;99175.10;1749506;81;21331;-33
2021/01/31 05:49:44;;;;;;;37.08;15.58;;;;;;;-0.41;82.53;99197.52;1750382;82;21003;-33
2021/01/31 05:52:27;;;;;;;27.27;15.80;;;;;;;-0.54;81.46;99214.39;1750305;82;20955;-34
2021/01/31 05:54:55;;;;;;;25.35;15.30;;;;;;;-0.81;80.58;99251.03;1750403;82;20932;-33
2021/01/31 05:57:29;;;;;;;29.32;15.28;;;;;;;-1.09;80.62;99222.00;1723361;82;21565;-33
2021/01/31 06:00:05;;;;;;;34.90;17.92;;;;;;;-1.24;81.05;99200.69;1749926;82;21418;-33
2021/01/31 06:02:33;;;;;;;42.78;22.93;;;;;;;-1.39;81.91;99274.16;1746051;82;20911;-35
2021/01/31 06:05:16;;;;;;;40.00;22.98;;;;;;;-1.52;83.13;99259.20;1749999;82;21490;-32
2021/01/31 06:07:45;;;;;;;37.95;20.90;;;;;;;-1.58;82.28;99243.50;1749978;82;20915;-32
2021/01/31 06:10:17;;;;;;;41.48;25.25;;;;;;;-1.72;81.30;99269.13;1749858;82;20972;-32
2021/01/31 06:12:48;;;;;;;40.15;23.85;;;;;;;-1.81;81.78;99279.59;1749964;82;21362;-32
2021/01/31 06:15:27;;;;;;;38.15;18.48;;;;;;;-1.85;82.08;99317.59;1750047;82;20939;-31
2021/01/31 06:18:03;;;;;;;30.32;16.77;;;;;;;-1.89;81.22;99321.78;1748960;82;20916;-32
2021/01/31 06:20:38;;;;;;;37.17;21.37;;;;;;;-1.90;81.84;99333.60;1750052;82;20995;-33
2021/01/31 06:23:06;;;;;;;40.67;21.50;;;;;;;-1.97;81.17;99349.58;1749974;82;20990;-32
2021/01/31 06:25:39;;;;;;;28.83;16.62;;;;;;;-2.02;80.56;99349.92;1749966;82;22758;-32
2021/01/31 06:28:15;;;;;;;31.62;17.90;;;;;;;-2.12;80.71;99370.48;1749919;82;21526;-32
2021/01/31 06:31:15;;;;;;;39.65;20.17;;;;;;;-2.19;79.62;99368.66;1749848;82;21002;-33
2021/01/31 06:33:44;;;;;;;37.53;19.85;;;;;;;-2.27;79.94;99387.98;1749930;82;20976;-32
2021/01/31 06:36:33;;;;;;;37.73;20.70;;;;;;;-2.33;79.98;99377.31;1749966;82;20987;-33
2021/01/31 06:39:41;;;;;;;34.55;20.60;;;;;;;-2.34;79.98;99376.47;1722295;82;21212;-33
2021/01/31 06:42:33;;;;;;;30.12;16.70;;;;;;;-2.38;80.00;99389.06;1735784;82;21007;-33
2021/01/31 06:45:07;;;;;;;34.53;17.32;;;;;;;-2.41;79.94;99384.78;1749826;82;20948;-32
2021/01/31 06:48:13;;;;;;;31.07;14.70;;;;;;;-2.44;80.13;99399.94;1749251;81;21410;-35
2021/01/31 06:50:53;;;;;;;27.17;14.55;;;;;;;-2.48;79.24;99407.92;1750099;82;20995;-32
2021/01/31 06:53:30;;;;;;;27.77;13.22;;;;;;;-2.47;79.00;99413.83;1746523;82;21215;-33
2021/01/31 06:56:30;;;;;;;29.42;13.93;;;;;;;-2.46;78.74;99424.41;1749842;82;21129;-32
2021/01/31 06:59:21;;;;;;;40.08;18.67;;;;;;;-2.52;78.54;99411.23;1749895;82;20999;-33
2021/01/31 07:02:05;;;;;;;36.83;19.10;;;;;;;-2.53;78.60;99417.53;1699902;82;21028;-32
2021/01/31 07:04:57;;;;;;;32.00;17.57;;;;;;;-2.53;79.08;99426.41;1725304;82;20916;-33
2021/01/31 07:07:56;;;;;;;37.13;18.20;;;;;;;-2.52;78.43;99442.92;1749810;82;21207;-33
2021/01/31 07:11:13;;;;;;;27.70;14.98;;;;;;;-2.48;78.18;99436.20;1749645;82;20935;-34
2021/01/31 07:14:21;;;;;;;32.95;18.57;;;;;;;-2.49;77.60;99449.31;1749857;82;21011;-33
2021/01/31 07:17:04;;;;;;;27.90;14.90;;;;;;;-2.42;76.92;99450.68;1749862;82;21010;-33
2021/01/31 07:19:46;;;;;;;38.50;18.73;;;;;;;-2.39;76.62;99466.81;1749908;82;21035;-33
2021/01/31 07:22:22;;;;;;;33.13;14.68;;;;;;;-2.38;76.31;99457.11;1749873;82;21490;-34
2021/01/31 07:25:22;;;;;;;36.68;17.00;;;;;;;-2.31;76.10;99460.59;1749898;82;21027;-31
2021/01/31 07:28:01;;;;;;;27.32;15.88;;;;;;;-2.28;76.29;99473.31;1749503;82;20980;-32
2021/01/31 07:30:39;;;;;;;22.35;13.10;;;;;;;-2.26;76.51;99450.54;1749890;82;21030;-32
2021/01/31 07:33:46;;;;;;;22.25;11.00;;;;;;;-2.27;75.98;99426.01;1749926;82;20919;-32
2021/01/31 07:36:19;;;;;;;;;;;;;;;-2.28;76.51;99439.09;1752455;82;21206;-33
2021/01/31 07:39:00;;;;;;;21.70;11.50;;;;;;;-2.29;77.09;99468.23;1722401;82;20149;-33
2021/01/31 07:41:28;;;;;;;21.85;13.65;;;;;;;-2.31;76.34;99502.42;1749906;82;21059;-32
2021/01/31 07:44:09;;;;;;;24.55;14.68;;;;;;;-2.32;77.08;99526.94;1749954;81;20919;-33
2021/01/31 07:46:37;;;;;;;13.48;7.55;;;;;;;-2.28;77.04;99536.70;1722873;82;21089;-33
2021/01/31 07:49:06;;;;;;;18.82;11.08;;;;;;;-2.29;76.66;99548.95;1727823;81;21369;-33
2021/01/31 07:51:42;;;;;;;27.67;12.98;;;;;;;-2.27;76.07;99551.52;1757531;81;21470;-34
2021/01/31 07:54:28;;;;;;;16.52;9.60;;;;;;;-2.27;76.27;99558.73;1757567;81;20956;-32
2021/01/31 07:57:01;;;;;;;17.67;10.15;;;;;;;-2.25;76.70;99566.35;1757719;81;20979;-34
2021/01/31 07:59:29;;;;;;;10.78;6.33;;;;;;;-2.23;75.90;99583.72;1745932;81;21026;-33
2021/01/31 08:01:58;;;;;;;11.10;6.70;;;;;;;-2.27;72.73;99585.76;1757653;81;21206;-33
2021/01/31 08:04:36;;;;;;;13.38;8.00;;;;;;;-2.31;72.48;99599.64;1757562;81;20935;-33
2021/01/31 08:07:06;;;;;;;9.35;5.58;;;;;;;-2.35;72.55;99604.22;1756363;81;20951;-32
2021/01/31 08:09:44;;;;;;;13.40;7.87;;;;;;;-2.36;72.11;99617.72;1757713;81;20891;-33
2021/01/31 08:12:13;;;;;;;11.12;8.23;;;;;;;-2.41;73.38;99621.81;1757593;81;21014;-34
2021/01/31 08:15:11;;;;;;;7.12;5.25;;;;;;;-2.37;73.97;99632.48;1757645;81;21443;-33
2021/01/31 08:17:55;;;;;;;11.38;6.72;;;;;;;-2.37;72.20;99643.89;1695122;83;21189;-34
2021/01/31 08:20:39;;;;;;;7.28;4.85;;;;;;;-2.38;72.24;99646.38;1847638;76;22669;-33
2021/01/31 08:23:27;;;;;;;11.50;5.72;;;;;;;-2.41;72.14;99638.29;1818262;79;20973;-33
2021/01/31 08:25:59;;;;;;;10.10;6.28;;;;;;;-2.45;72.35;99636.52;1818074;78;21188;-32
2021/01/31 08:28:32;;;;;;;8.88;6.70;;;;;;;-2.45;72.25;99645.39;1818051;79;20907;-33
2021/01/31 08:31:13;;;;;;;11.05;6.62;;;;;;;-2.41;73.22;99655.20;1818113;78;21056;-32
2021/01/31 08:33:44;;;;;;;9.70;7.10;;;;;;;-2.36;73.62;99651.07;1818139;79;20955;-33
2021/01/31 08:36:23;;;;;;;12.30;6.87;;;;;;;-2.28;73.79;99660.11;1818087;79;21382;-33
2021/01/31 08:38:53;;;;;;;11.12;6.97;;;;;;;-2.26;74.07;99680.89;1814651;79;21204;-34
2021/01/31 08:41:32;;;;;;;9.85;6.80;;;;;;;-2.18;73.48;99694.58;1818154;78;21067;-34
2021/01/31 08:44:16;;;;;;;4.00;3.52;;;;;;;-2.20;73.04;99706.38;1818025;78;20990;-32
2021/01/31 08:47:00;;;;;;;10.85;5.60;;;;;;;-2.22;72.22;99713.49;1818103;78;20978;-32
2021/01/31 08:49:28;;;;;;;9.60;6.92;;;;;;;-2.24;72.57;99699.92;1818196;78;21272;-33
2021/01/31 08:52:04;;;;;;;10.85;5.95;;;;;;;-2.26;73.64;99714.25;1818097;78;21222;-32
2021/01/31 08:54:32;;;;;;;10.38;6.33;;;;;;;-2.21;73.69;99724.08;1818213;77;21315;-33
2021/01/31 08:57:08;;;;;;;10.50;6.75;;;;;;;-2.20;72.60;99720.72;1818086;79;20915;-33
2021/01/31 08:59:49;;;;;;;9.03;5.70;;;;;;;-2.15;73.26;99729.28;1817967;79;20998;-33
2021/01/31 09:02:27;;;;;;;7.40;5.30;;;;;;;-2.18;72.66;99728.81;1818207;79;20982;-33
2021/01/31 09:05:09;;;;;;;13.10;7.47;;;;;;;-2.17;73.00;99729.66;1818147;79;22580;-34
2021/01/31 09:07:39;;;;;;;8.35;5.33;;;;;;;-2.18;73.90;99738.97;1818100;79;21021;-31
2021/01/31 09:10:44;;;;;;;14.05;8.05;;;;;;;-2.17;73.08;99738.53;1818098;79;21446;-34
2021/01/31 09:13:33;;;;;;;10.65;7.35;;;;;;;-2.17;73.41;99741.07;1818012;79;21050;-34
2021/01/31 09:16:24;;;;;;;10.95;7.05;;;;;;;-2.19;72.56;99764.27;1818024;79;20885;-33
2021/01/31 09:19:19;;;;;;;15.40;7.58;;;;;;;-2.26;73.18;99780.19;1821017;78;22239;-33
2021/01/31 09:21:49;;;;;;;7.33;5.72;;;;;;;-2.29;73.91;99788.99;1833202;78;20914;-32
2021/01/31 09:24:18;;;;;;;10.40;6.33;;;;;;;-2.28;73.32;99793.24;1832744;78;20945;-34
2021/01/31 09:26:51;;;;;;;7.25;5.80;;;;;;;-2.29;73.36;99797.86;1833072;78;20966;-34
2021/01/31 09:29:22;;;;;;;7.70;5.92;;;;;;;-2.29;74.27;99805.47;1833183;78;20966;-34
2021/01/31 09:31:59;;;;;;;12.00;6.30;;;;;;;-2.22;72.88;99802.25;1830034;78;21370;-33
2021/01/31 09:34:27;;;;;;;;;;;;;;;-2.20;72.84;99813.28;1835213;78;20982;-34
2021/01/31 09:37:24;;;;;;;7.35;5.87;;;;;;;-2.18;72.29;99818.85;1805102;78;20096;-33
2021/01/31 09:39:54;;;;;;;6.87;5.90;;;;;;;-2.22;71.27;99826.34;1832371;78;20962;-34
2021/01/31 09:42:22;;;;;;;8.75;6.28;;;;;;;-2.23;72.00;99833.50;1832579;78;20899;-34
2021/01/31 09:44:57;;;;;;;16.48;7.33;;;;;;;-2.19;72.57;99828.55;1832576;78;21337;-34
2021/01/31 09:47:24;;;;;;;6.22;5.58;;;;;;;-2.08;72.51;99833.87;1832570;78;21544;-33
2021/01/31 09:49:57;;;;;;;44.42;7.50;;;;;;;-2.04;71.42;99844.53;1832480;78;20867;-35
2021/01/31 09:52:24;;;;;;;64.92;9.45;;;;;;;-2.03;71.93;99844.11;1832495;78;20994;-34
2021/01/31 09:54:52;;;;;;;61.02;8.38;;;;;;;-1.98;72.66;99849.30;1832397;78;20910;-34
2021/01/31 09:57:28;;;;;;;11.38;6.80;;;;;;;-1.88;72.14;99862.66;1832583;78;21257;-33
2021/01/31 10:00:13;;;;;;;42.60;7.53;;;;;;;-1.88;71.67;99861.39;1832443;78;20962;-33
2021/01/31 10:02:41;;;;;;;8.25;5.95;;;;;;;-1.94;72.36;99862.10;1832780;78;21438;-32
2021/01/31 10:05:10;;;;;;;23.83;6.50;;;;;;;-1.97;72.16;99868.77;1832472;78;20969;-34
2021/01/31 10:07:44;;;;;;;5.15;4.28;;;;;;;-2.05;71.29;99864.39;1832565;78;20910;-34
2021/01/31 10:10:26;;;;;;;4.25;3.60;;;;;;;-2.06;71.33;99873.21;1832560;78;21469;-33
2021/01/31 10:13:37;;;;;;;7.17;4.90;;;;;;;-2.07;71.23;99873.64;1805384;78;20995;-34
2021/01/31 10:16:17;;;;;;;6.17;4.97;;;;;;;-2.07;71.74;99879.98;1832464;78;20919;-33
2021/01/31 10:18:46;;;;;;;5.78;4.53;;;;;;;-2.03;71.98;99881.77;1832508;78;20947;-34
2021/01/31 10:21:30;;;;;;;8.68;5.50;;;;;;;-1.97;71.95;99896.68;1786419;79;20955;-33
2021/01/31 10:24:17;;;;;;;4.20;3.75;;;;;;;-1.96;71.64;99895.86;1817097;79;21593;-33
2021/01/31 10:26:46;;;;;;;5.03;4.45;;;;;;;-2.04;70.72;99897.81;1817342;79;21109;-33
2021/01/31 10:29:22;;;;;;;6.90;4.90;;;;;;;-2.08;71.06;99902.37;1817394;79;20990;-33
2021/01/31 10:32:36;;;;;;;7.20;4.45;;;;;;;-1.99;70.95;99912.28;1812755;77;22579;-33
2021/01/31 10:35:31;;;;;;;3.72;2.77;;;;;;;-2.08;71.11;99913.78;1740698;80;21038;-34
2021/01/31 10:38:26;;;;;;;5.87;4.63;;;;;;;-2.11;69.97;99921.32;1784475;80;21191;-32
2021/01/31 10:40:55;;;;;;;9.75;4.67;;;;;;;-2.09;70.32;99928.95;1752148;80;20880;-33
2021/01/31 10:43:24;;;;;;;7.47;4.15;;;;;;;-2.09;69.98;99940.36;1784161;79;20990;-33
2021/01/31 10:45:53;;;;;;;8.00;3.98;;;;;;;-2.14;69.83;99940.27;1784328;79;21010;-33
2021/01/31 10:48:20;;;;;;;3.70;3.35;;;;;;;-2.19;71.13;99927.86;1784330;80;20991;-33
2021/01/31 10:50:48;;;;;;;6.45;4.00;;;;;;;-2.13;70.75;99938.19;1784303;80;21146;-33
2021/01/31 10:53:17;;;;;;;5.83;4.42;;;;;;;-2.17;70.17;99927.48;1784180;80;20884;-34
2021/01/31 10:55:45;;;;;;;5.90;4.35;;;;;;;-2.18;70.48;99923.23;1784265;80;20986;-32
2021/01/31 10:58:13;;;;;;;7.47;4.80;;;;;;;-2.19;70.76;99927.86;1754019;80;21006;-33
2021/01/31 11:00:41;;;;;;;9.95;5.03;;;;;;;-2.21;71.48;99943.45;1784253;80;21038;-36
2021/01/31 11:03:08;;;;;;;4.90;4.03;;;;;;;-2.18;71.12;99935.91;1784296;80;21531;-34
2021/01/31 11:05:36;;;;;;;6.85;5.10;;;;;;;-2.20;70.78;99943.50;1784232;80;21038;-34
2021/01/31 11:08:05;;;;;;;10.03;6.22;;;;;;;-2.25;71.18;99948.00;1784233;80;20876;-32
2021/01/31 11:10:34;;;;;;;6.33;4.60;;;;;;;-2.25;71.20;99945.07;1784136;79;20951;-34
2021/01/31 11:13:02;;;;;;;6.47;5.25;;;;;;;-2.25;71.14;99953.95;1784235;80;20995;-33
2021/01/31 11:15:29;;;;;;;7.90;5.25;;;;;;;-2.22;71.61;99960.76;1784269;80;21214;-32
2021/01/31 11:17:58;;;;;;;7.12;5.35;;;;;;;-2.15;71.31;99963.05;1784115;79;20887;-33
2021/01/31 11:20:27;;;;;;;11.48;6.05;;;;;;;-2.09;71.22;99973.34;1784227;79;20880;-34
2021/01/31 11:22:54;;;;;;;7.08;6.22;;;;;;;-2.06;71.38;99975.95;1784172;80;20927;-32
2021/01/31 11:25:22;;;;;;;7.65;5.62;;;;;;;-2.07;71.44;99976.38;1784216;80;20970;-33
2021/01/31 11:27:50;;;;;;;7.65;6.00;;;;;;;-2.07;71.25;99983.98;1784287;80;22795;-34
2021/01/31 11:30:21;;;;;;;7.47;5.55;;;;;;;-2.07;71.43;99989.06;1786077;80;20986;-34
2021/01/31 11:32:48;;;;;;;8.95;6.20;;;;;;;-2.05;71.49;99992.49;1793627;80;20895;-33
2021/01/31 11:35:16;;;;;;;15.40;8.40;;;;;;;-2.03;71.51;99987.05;1793657;80;21020;-32
2021/01/31 11:37:44;;;;;;;8.45;6.08;;;;;;;-2.00;71.27;99986.67;1793735;80;20994;-33
2021/01/31 11:40:13;;;;;;;8.90;5.78;;;;;;;-2.02;70.28;99983.69;1793631;80;21193;-34
2021/01/31 11:42:40;;;;;;;6.22;4.90;;;;;;;-2.07;70.86;99990.72;1793197;80;21037;-35
2021/01/31 11:45:09;;;;;;;22.00;5.83;;;;;;;-2.08;71.18;100008.91;1793053;80;20919;-34
2021/01/31 11:47:38;;;;;;;8.25;5.75;;;;;;;-2.07;71.25;100013.16;1793115;80;20955;-33
2021/01/31 11:50:08;;;;;;;9.85;6.42;;;;;;;-2.12;71.67;100012.58;1793076;80;21073;-33
2021/01/31 11:52:35;;;;;;;13.78;8.00;;;;;;;-2.14;72.01;100019.30;1793117;78;21366;-34
2021/01/31 11:55:05;;;;;;;13.43;7.20;;;;;;;-2.18;72.25;100024.69;1793039;80;21051;-33
2021/01/31 11:57:35;;;;;;;12.03;6.95;;;;;;;-2.18;72.99;100032.30;1793111;80;20978;-34
2021/01/31 12:00:08;;;;;;;10.38;7.25;;;;;;;-2.18;72.64;100025.95;1792945;80;20930;-34
2021/01/31 12:02:38;;;;;;;11.18;7.25;;;;;;;-2.20;72.75;100016.18;1793007;79;20899;-34
2021/01/31 12:05:12;;;;;;;9.48;6.35;;;;;;;-2.20;72.88;100006.91;1793036;80;21207;-34
2021/01/31 12:07:40;;;;;;;8.88;6.42;;;;;;;-2.20;73.32;100013.64;1793062;80;21069;-33
2021/01/31 12:10:12;;;;;;;11.12;7.83;;;;;;;-2.18;73.47;100020.88;1792975;80;21002;-34